sensor_id;sensor_type;location;lat;lon;timestamp;pressure;altitude;pressure_sealevel;temperature;humidity
65800;BME280;52544;48.116;11.660;2023-04-20T00:01:57;95531.81;;;4.43;100.00
65800;BME280;52544;48.116;11.660;2023-04-20T00:04:27;95527.13;;;4.48;100.00
65800;BME280;52544;48.116;11.660;2023-04-20T00:06:53;95529.75;;;4.48;100.00
65800;BME280;52544;48.116;11.660;2023-04-20T00:09:21;95527.03;;;4.49;100.00
65800;BME280;52544;48.116;11.660;2023-04-20T00:11:47;95515.34;;;4.55;100.00
65800;BME280;52544;48.116;11.660;2023-04-20T00:14:13;95522.25;;;4.56;100.00
65800;BME280;52544;48.116;11.660;2023-04-20T00:16:39;95516.25;;;4.54;100.00
65800;BME280;52544;48.116;11.660;2023-04-20T00:19:05;95515.16;;;4.44;100.00
65800;BME280;52544;48.116;11.660;2023-04-20T00:21:32;95507.19;;;4.45;100.00
65800;BME280;52544;48.116;11.660;2023-04-20T00:23:58;95507.09;;;4.47;100.00
65800;BME280;52544;48.116;11.660;2023-04-20T00:26:23;95503.94;;;4.42;100.00
65800;BME280;52544;48.116;11.660;2023-04-20T00:28:50;95499.44;;;4.44;100.00
65800;BME280;52544;48.116;11.660;2023-04-20T00:31:16;95499.97;;;4.49;100.00
65800;BME280;52544;48.116;11.660;2023-04-20T00:33:41;95491.16;;;4.50;100.00
65800;BME280;52544;48.116;11.660;2023-04-20T00:36:07;95482.75;;;4.45;100.00
65800;BME280;52544;48.116;11.660;2023-04-20T00:38:32;95489.25;;;4.39;100.00
65800;BME280;52544;48.116;11.660;2023-04-20T00:40:58;95486.50;;;4.41;100.00
65800;BME280;52544;48.116;11.660;2023-04-20T00:43:23;95476.97;;;4.40;100.00
65800;BME280;52544;48.116;11.660;2023-04-20T00:45:49;95476.88;;;4.41;100.00
65800;BME280;52544;48.116;11.660;2023-04-20T00:48:16;95475.19;;;4.40;100.00
65800;BME280;52544;48.116;11.660;2023-04-20T00:50:42;95462.09;;;4.40;100.00
65800;BME280;52544;48.116;11.660;2023-04-20T00:53:08;95468.66;;;4.33;100.00
65800;BME280;52544;48.116;11.660;2023-04-20T00:55:36;95466.91;;;4.34;100.00
65800;BME280;52544;48.116;11.660;2023-04-20T00:58:01;95459.09;;;4.32;100.00
65800;BME280;52544;48.116;11.660;2023-04-20T01:00:27;95459.03;;;4.34;100.00
65800;BME280;52544;48.116;11.660;2023-04-20T01:02:53;95451.91;;;4.36;100.00
65800;BME280;52544;48.116;11.660;2023-04-20T01:05:19;95451.91;;;4.36;100.00
65800;BME280;52544;48.116;11.660;2023-04-20T01:07:45;95448.56;;;4.34;100.00
65800;BME280;52544;48.116;11.660;2023-04-20T01:10:10;95436.19;;;4.36;100.00
65800;BME280;52544;48.116;11.660;2023-04-20T01:12:36;95436.38;;;4.33;100.00
65800;BME280;52544;48.116;11.660;2023-04-20T01:15:02;95425.06;;;4.32;100.00
65800;BME280;52544;48.116;11.660;2023-04-20T01:17:30;95419.56;;;4.22;100.00
65800;BME280;52544;48.116;11.660;2023-04-20T01:19:55;95409.72;;;4.26;100.00
65800;BME280;52544;48.116;11.660;2023-04-20T01:22:21;95408.91;;;4.25;100.00
65800;BME280;52544;48.116;11.660;2023-04-20T01:24:46;95408.69;;;4.29;100.00
65800;BME280;52544;48.116;11.660;2023-04-20T01:27:13;95415.81;;;4.26;100.00
65800;BME280;52544;48.116;11.660;2023-04-20T01:29:41;95408.91;;;4.25;100.00
65800;BME280;52544;48.116;11.660;2023-04-20T01:32:06;95414.88;;;4.28;100.00
65800;BME280;52544;48.116;11.660;2023-04-20T01:34:32;95408.91;;;4.25;100.00
65800;BME280;52544;48.116;11.660;2023-04-20T01:36:57;95421.88;;;4.27;100.00
65800;BME280;52544;48.116;11.660;2023-04-20T01:39:23;95420.09;;;4.28;100.00
65800;BME280;52544;48.116;11.660;2023-04-20T01:41:49;95416.28;;;4.19;100.00
65800;BME280;52544;48.116;11.660;2023-04-20T01:44:15;95411.50;;;4.25;100.00
65800;BME280;52544;48.116;11.660;2023-04-20T01:46:40;95416.66;;;4.27;100.00
65800;BME280;52544;48.116;11.660;2023-04-20T01:49:06;95427.13;;;4.27;100.00
65800;BME280;52544;48.116;11.660;2023-04-20T01:51:33;95418.25;;;4.30;100.00
65800;BME280;52544;48.116;11.660;2023-04-20T01:53:59;95416.25;;;4.33;100.00
65800;BME280;52544;48.116;11.660;2023-04-20T01:56:24;95420.03;;;4.29;100.00
65800;BME280;52544;48.116;11.660;2023-04-20T01:58:50;95412.25;;;4.28;100.00
65800;BME280;52544;48.116;11.660;2023-04-20T02:01:15;95405.22;;;4.28;100.00
65800;BME280;52544;48.116;11.660;2023-04-20T02:03:41;95406.06;;;4.29;100.00
65800;BME280;52544;48.116;11.660;2023-04-20T02:06:06;95404.69;;;4.23;100.00
65800;BME280;52544;48.116;11.660;2023-04-20T02:08:32;95407.84;;;4.28;100.00
65800;BME280;52544;48.116;11.660;2023-04-20T02:10:58;95398.59;;;4.22;100.00
65800;BME280;52544;48.116;11.660;2023-04-20T02:13:23;95396.72;;;4.24;100.00
65800;BME280;52544;48.116;11.660;2023-04-20T02:15:49;95390.84;;;4.21;100.00
65800;BME280;52544;48.116;11.660;2023-04-20T02:18:14;95393.56;;;4.19;100.00
65800;BME280;52544;48.116;11.660;2023-04-20T02:20:41;95390.94;;;4.19;100.00
65800;BME280;52544;48.116;11.660;2023-04-20T02:23:07;95402.75;;;4.12;100.00
65800;BME280;52544;48.116;11.660;2023-04-20T02:25:32;95395.81;;;4.11;100.00
65800;BME280;52544;48.116;11.660;2023-04-20T02:27:58;95395.81;;;4.11;100.00
65800;BME280;52544;48.116;11.660;2023-04-20T02:30:23;95391.81;;;4.06;100.00
65800;BME280;52544;48.116;11.660;2023-04-20T02:32:49;95387.81;;;4.00;100.00
65800;BME280;52544;48.116;11.660;2023-04-20T02:35:14;95387.69;;;4.01;100.00
65800;BME280;52544;48.116;11.660;2023-04-20T02:37:39;95378.34;;;3.97;100.00
65800;BME280;52544;48.116;11.660;2023-04-20T02:40:05;95395.09;;;3.95;100.00
65800;BME280;52544;48.116;11.660;2023-04-20T02:42:31;95381.25;;;3.93;100.00
65800;BME280;52544;48.116;11.660;2023-04-20T02:44:57;95377.81;;;3.92;100.00
65800;BME280;52544;48.116;11.660;2023-04-20T02:47:22;95374.44;;;3.90;100.00
65800;BME280;52544;48.116;11.660;2023-04-20T02:49:48;95371.19;;;3.87;100.00
65800;BME280;52544;48.116;11.660;2023-04-20T02:52:13;95370.97;;;3.90;100.00
65800;BME280;52544;48.116;11.660;2023-04-20T02:54:39;95364.34;;;3.84;100.00
65800;BME280;52544;48.116;11.660;2023-04-20T02:57:04;95359.94;;;3.85;100.00
65800;BME280;52544;48.116;11.660;2023-04-20T02:59:30;95359.94;;;3.85;100.00
65800;BME280;52544;48.116;11.660;2023-04-20T03:01:55;95355.47;;;3.87;100.00
65800;BME280;52544;48.116;11.660;2023-04-20T03:04:21;95347.50;;;3.88;100.00
65800;BME280;52544;48.116;11.660;2023-04-20T03:06:48;95343.78;;;3.92;100.00
65800;BME280;52544;48.116;11.660;2023-04-20T03:09:14;95342.63;;;3.96;100.00
65800;BME280;52544;48.116;11.660;2023-04-20T03:11:40;95347.88;;;3.96;100.00
65800;BME280;52544;48.116;11.660;2023-04-20T03:14:05;95340.03;;;3.96;100.00
65800;BME280;52544;48.116;11.660;2023-04-20T03:16:31;95346.94;;;3.97;100.00
65800;BME280;52544;48.116;11.660;2023-04-20T03:18:56;95349.44;;;3.99;100.00
65800;BME280;52544;48.116;11.660;2023-04-20T03:21:22;95348.59;;;3.98;100.00
65800;BME280;52544;48.116;11.660;2023-04-20T03:23:47;95344.97;;;4.01;100.00
65800;BME280;52544;48.116;11.660;2023-04-20T03:26:13;95337.09;;;4.01;100.00
65800;BME280;52544;48.116;11.660;2023-04-20T03:28:40;95339.63;;;4.03;100.00
65800;BME280;52544;48.116;11.660;2023-04-20T03:31:05;95340.44;;;4.03;100.00
65800;BME280;52544;48.116;11.660;2023-04-20T03:33:31;95340.44;;;4.03;100.00
65800;BME280;52544;48.116;11.660;2023-04-20T03:35:56;95344.66;;;4.06;100.00
65800;BME280;52544;48.116;11.660;2023-04-20T03:38:21;95335.88;;;4.07;100.00
65800;BME280;52544;48.116;11.660;2023-04-20T03:40:47;95335.22;;;4.03;100.00
65800;BME280;52544;48.116;11.660;2023-04-20T03:43:12;95331.34;;;3.96;100.00
65800;BME280;52544;48.116;11.660;2023-04-20T03:45:38;95337.28;;;3.98;100.00
65800;BME280;52544;48.116;11.660;2023-04-20T03:48:03;95327.66;;;3.98;100.00
65800;BME280;52544;48.116;11.660;2023-04-20T03:50:29;95334.69;;;3.98;100.00
65800;BME280;52544;48.116;11.660;2023-04-20T03:52:54;95329.44;;;3.98;100.00
65800;BME280;52544;48.116;11.660;2023-04-20T03:55:20;95326.09;;;3.96;100.00
65800;BME280;52544;48.116;11.660;2023-04-20T03:57:45;95326.09;;;3.96;100.00
65800;BME280;52544;48.116;11.660;2023-04-20T04:00:11;95322.16;;;3.89;100.00
65800;BME280;52544;48.116;11.660;2023-04-20T04:02:37;95319.38;;;3.92;100.00
65800;BME280;52544;48.116;11.660;2023-04-20T04:05:02;95324.97;;;3.86;100.00
65800;BME280;52544;48.116;11.660;2023-04-20T04:07:28;95320.69;;;3.85;100.00
65800;BME280;52544;48.116;11.660;2023-04-20T04:09:53;95318.06;;;3.85;100.00
65800;BME280;52544;48.116;11.660;2023-04-20T04:12:19;95319.31;;;3.79;100.00
65800;BME280;52544;48.116;11.660;2023-04-20T04:14:44;95314.78;;;3.81;100.00
65800;BME280;52544;48.116;11.660;2023-04-20T04:17:10;95311.22;;;3.82;100.00
65800;BME280;52544;48.116;11.660;2023-04-20T04:19:35;95309.78;;;3.78;100.00
65800;BME280;52544;48.116;11.660;2023-04-20T04:22:00;95306.88;;;3.83;100.00
65800;BME280;52544;48.116;11.660;2023-04-20T04:24:26;95309.47;;;3.83;100.00
65800;BME280;52544;48.116;11.660;2023-04-20T04:26:52;95308.53;;;3.84;100.00
65800;BME280;52544;48.116;11.660;2023-04-20T04:29:23;95309.19;;;3.87;100.00
65800;BME280;52544;48.116;11.660;2023-04-20T04:31:51;95305.81;;;3.85;100.00
65800;BME280;52544;48.116;11.660;2023-04-20T04:34:16;95312.00;;;3.84;100.00
65800;BME280;52544;48.116;11.660;2023-04-20T04:36:43;95304.97;;;3.85;100.00
65800;BME280;52544;48.116;11.660;2023-04-20T04:39:08;95307.41;;;3.88;100.00
65800;BME280;52544;48.116;11.660;2023-04-20T04:41:34;95314.22;;;3.90;100.00
65800;BME280;52544;48.116;11.660;2023-04-20T04:44:00;95308.91;;;3.92;100.00
65800;BME280;52544;48.116;11.660;2023-04-20T04:46:26;95316.94;;;3.89;100.00
65800;BME280;52544;48.116;11.660;2023-04-20T04:48:52;95310.03;;;3.88;100.00
65800;BME280;52544;48.116;11.660;2023-04-20T04:51:18;95312.72;;;3.86;100.00
65800;BME280;52544;48.116;11.660;2023-04-20T04:53:43;95311.88;;;3.86;100.00
65800;BME280;52544;48.116;11.660;2023-04-20T04:56:11;95301.41;;;3.86;100.00
65800;BME280;52544;48.116;11.660;2023-04-20T04:58:37;95308.44;;;3.85;100.00
65800;BME280;52544;48.116;11.660;2023-04-20T05:01:03;95301.41;;;3.86;100.00
65800;BME280;52544;48.116;11.660;2023-04-20T05:03:29;95297.53;;;3.79;100.00
65800;BME280;52544;48.116;11.660;2023-04-20T05:05:54;95302.53;;;3.82;100.00
65800;BME280;52544;48.116;11.660;2023-04-20T05:08:20;95300.88;;;3.81;100.00
65800;BME280;52544;48.116;11.660;2023-04-20T05:10:46;95301.63;;;3.83;100.00
65800;BME280;52544;48.116;11.660;2023-04-20T05:13:12;95304.13;;;3.84;100.00
65800;BME280;52544;48.116;11.660;2023-04-20T05:15:37;95299.31;;;3.78;100.00
65800;BME280;52544;48.116;11.660;2023-04-20T05:18:02;95311.63;;;3.76;100.00
65800;BME280;52544;48.116;11.660;2023-04-20T05:20:28;95299.31;;;3.78;100.00
65800;BME280;52544;48.116;11.660;2023-04-20T05:22:53;95309.00;;;3.76;100.00
65800;BME280;52544;48.116;11.660;2023-04-20T05:25:19;95311.44;;;3.79;100.00
65800;BME280;52544;48.116;11.660;2023-04-20T05:27:44;95312.47;;;3.76;100.00
65800;BME280;52544;48.116;11.660;2023-04-20T05:30:10;95318.53;;;3.77;100.00
65800;BME280;52544;48.116;11.660;2023-04-20T05:32:36;95308.19;;;3.75;100.00
65800;BME280;52544;48.116;11.660;2023-04-20T05:35:01;95307.22;;;3.76;100.00
65800;BME280;52544;48.116;11.660;2023-04-20T05:37:27;95312.41;;;3.78;100.00
65800;BME280;52544;48.116;11.660;2023-04-20T05:39:53;95313.13;;;3.80;100.00
65800;BME280;52544;48.116;11.660;2023-04-20T05:42:18;95311.34;;;3.81;100.00
65800;BME280;52544;48.116;11.660;2023-04-20T05:44:44;95301.91;;;3.78;100.00
65800;BME280;52544;48.116;11.660;2023-04-20T05:47:09;95294.69;;;3.82;100.00
65800;BME280;52544;48.116;11.660;2023-04-20T05:49:35;95292.38;;;3.77;100.00
65800;BME280;52544;48.116;11.660;2023-04-20T05:52:00;95308.06;;;3.77;100.00
65800;BME280;52544;48.116;11.660;2023-04-20T05:54:26;95305.28;;;3.80;100.00
65800;BME280;52544;48.116;11.660;2023-04-20T05:56:55;95303.38;;;3.82;100.00
65800;BME280;52544;48.116;11.660;2023-04-20T05:59:22;95299.75;;;3.85;100.00
65800;BME280;52544;48.116;11.660;2023-04-20T06:01:48;95309.38;;;3.84;100.00
65800;BME280;52544;48.116;11.660;2023-04-20T06:04:13;95302.75;;;3.79;100.00
65800;BME280;52544;48.116;11.660;2023-04-20T06:06:39;95299.94;;;3.82;100.00
65800;BME280;52544;48.116;11.660;2023-04-20T06:09:04;95297.13;;;3.85;100.00
65800;BME280;52544;48.116;11.660;2023-04-20T06:11:30;95303.66;;;3.92;100.00
65800;BME280;52544;48.116;11.660;2023-04-20T06:13:56;95295.59;;;3.95;100.00
65800;BME280;52544;48.116;11.660;2023-04-20T06:16:21;95307.75;;;3.96;100.00
65800;BME280;52544;48.116;11.660;2023-04-20T06:18:47;95302.53;;;3.96;100.00
65800;BME280;52544;48.116;11.660;2023-04-20T06:21:12;95291.94;;;3.97;100.00
65800;BME280;52544;48.116;11.660;2023-04-20T06:23:38;95292.59;;;4.01;100.00
65800;BME280;52544;48.116;11.660;2023-04-20T06:26:03;95284.75;;;4.01;100.00
65800;BME280;52544;48.116;11.660;2023-04-20T06:28:32;95283.97;;;3.99;100.00
65800;BME280;52544;48.116;11.660;2023-04-20T06:30:57;95276.13;;;3.99;100.00
65800;BME280;52544;48.116;11.660;2023-04-20T06:33:23;95283.97;;;3.99;100.00
65800;BME280;52544;48.116;11.660;2023-04-20T06:35:48;95268.19;;;4.00;100.00
65800;BME280;52544;48.116;11.660;2023-04-20T06:38:15;95277.84;;;4.00;100.00
65800;BME280;52544;48.116;11.660;2023-04-20T06:40:41;95277.59;;;4.03;100.00
65800;BME280;52544;48.116;11.660;2023-04-20T06:43:06;95270.31;;;4.08;100.00
65800;BME280;52544;48.116;11.660;2023-04-20T06:45:32;95274.41;;;4.12;100.00
65800;BME280;52544;48.116;11.660;2023-04-20T06:47:57;95266.56;;;4.12;100.00
65800;BME280;52544;48.116;11.660;2023-04-20T06:50:22;95258.97;;;4.08;100.00
65800;BME280;52544;48.116;11.660;2023-04-20T06:52:48;95271.25;;;4.07;100.00
65800;BME280;52544;48.116;11.660;2023-04-20T06:55:13;95264.13;;;4.09;100.00
65800;BME280;52544;48.116;11.660;2023-04-20T06:57:39;95259.84;;;4.08;100.00
65800;BME280;52544;48.116;11.660;2023-04-20T07:00:08;95256.38;;;4.08;100.00
65800;BME280;52544;48.116;11.660;2023-04-20T07:03:01;95257.00;;;4.11;100.00
65800;BME280;52544;48.116;11.660;2023-04-20T07:05:27;95263.00;;;4.13;100.00
65800;BME280;52544;48.116;11.660;2023-04-20T07:07:55;95260.47;;;4.12;100.00
65800;BME280;52544;48.116;11.660;2023-04-20T07:10:20;95264.84;;;4.11;100.00
65800;BME280;52544;48.116;11.660;2023-04-20T07:12:46;95260.34;;;4.00;100.00
65800;BME280;52544;48.116;11.660;2023-04-20T07:15:12;95259.38;;;4.01;100.00
65800;BME280;52544;48.116;11.660;2023-04-20T07:17:37;95256.66;;;4.03;100.00
65800;BME280;52544;48.116;11.660;2023-04-20T07:20:03;95257.53;;;4.04;100.00
65800;BME280;52544;48.116;11.660;2023-04-20T07:22:33;95261.16;;;4.01;100.00
65800;BME280;52544;48.116;11.660;2023-04-20T07:25:00;95262.13;;;4.00;100.00
65800;BME280;52544;48.116;11.660;2023-04-20T07:27:27;95261.06;;;4.03;100.00
65800;BME280;52544;48.116;11.660;2023-04-20T07:29:55;95276.78;;;4.03;100.00
65800;BME280;52544;48.116;11.660;2023-04-20T07:32:20;95269.88;;;4.01;100.00
65800;BME280;52544;48.116;11.660;2023-04-20T07:34:46;95272.47;;;4.01;100.00
65800;BME280;52544;48.116;11.660;2023-04-20T07:37:11;95279.63;;;3.99;100.00
65800;BME280;52544;48.116;11.660;2023-04-20T07:39:37;95281.38;;;3.99;100.00
65800;BME280;52544;48.116;11.660;2023-04-20T07:42:02;95289.03;;;4.02;100.00
65800;BME280;52544;48.116;11.660;2023-04-20T07:44:28;95293.53;;;4.00;100.00
65800;BME280;52544;48.116;11.660;2023-04-20T07:46:54;95283.78;;;4.02;100.00
65800;BME280;52544;48.116;11.660;2023-04-20T07:49:22;95290.63;;;4.05;100.00
65800;BME280;52544;48.116;11.660;2023-04-20T07:51:47;95286.94;;;4.07;100.00
65800;BME280;52544;48.116;11.660;2023-04-20T07:54:12;95287.72;;;4.09;100.00
65800;BME280;52544;48.116;11.660;2023-04-20T07:56:38;95287.53;;;4.12;100.00
65800;BME280;52544;48.116;11.660;2023-04-20T07:59:03;95292.34;;;4.18;100.00
65800;BME280;52544;48.116;11.660;2023-04-20T08:01:29;95296.56;;;4.21;100.00
65800;BME280;52544;48.116;11.660;2023-04-20T08:03:55;95296.97;;;4.28;100.00
65800;BME280;52544;48.116;11.660;2023-04-20T08:06:21;95300.66;;;4.25;100.00
65800;BME280;52544;48.116;11.660;2023-04-20T08:08:46;95293.63;;;4.25;100.00
65800;BME280;52544;48.116;11.660;2023-04-20T08:11:12;95290.25;;;4.23;100.00
65800;BME280;52544;48.116;11.660;2023-04-20T08:13:37;95287.75;;;4.22;100.00
65800;BME280;52544;48.116;11.660;2023-04-20T08:16:03;95286.69;;;4.24;100.00
65800;BME280;52544;48.116;11.660;2023-04-20T08:18:28;95277.81;;;4.27;100.00
65800;BME280;52544;48.116;11.660;2023-04-20T08:20:56;95269.00;;;4.28;100.00
65800;BME280;52544;48.116;11.660;2023-04-20T08:26:43;95261.78;;;4.32;100.00
65800;BME280;52544;48.116;11.660;2023-04-20T08:29:09;95269.13;;;4.26;100.00
65800;BME280;52544;48.116;11.660;2023-04-20T08:31:35;95273.22;;;4.31;100.00
65800;BME280;52544;48.116;11.660;2023-04-20T08:34:01;95277.31;;;4.35;100.00
65800;BME280;52544;48.116;11.660;2023-04-20T08:36:26;95271.88;;;4.38;100.00
65800;BME280;52544;48.116;11.660;2023-04-20T08:39:12;95265.78;;;4.37;100.00
65800;BME280;52544;48.116;11.660;2023-04-20T08:41:37;95272.91;;;4.35;100.00
65800;BME280;52544;48.116;11.660;2023-04-20T08:44:03;95268.31;;;4.39;100.00
65800;BME280;52544;48.116;11.660;2023-04-20T08:46:29;95270.63;;;4.43;100.00
65800;BME280;52544;48.116;11.660;2023-04-20T08:48:55;95270.31;;;4.48;100.00
65800;BME280;52544;48.116;11.660;2023-04-20T08:51:22;95271.47;;;4.44;100.00
65800;BME280;52544;48.116;11.660;2023-04-20T08:53:48;95258.25;;;4.45;100.00
65800;BME280;52544;48.116;11.660;2023-04-20T08:56:13;95266.03;;;4.47;100.00
65800;BME280;52544;48.116;11.660;2023-04-20T08:58:39;95274.59;;;4.49;100.00
65800;BME280;52544;48.116;11.660;2023-04-20T09:01:10;95273.66;;;4.50;100.00
65800;BME280;52544;48.116;11.660;2023-04-20T09:03:38;95270.31;;;4.48;100.00
65800;BME280;52544;48.116;11.660;2023-04-20T09:06:12;95279.66;;;4.52;100.00
65800;BME280;52544;48.116;11.660;2023-04-20T09:08:39;95278.72;;;4.53;100.00
65800;BME280;52544;48.116;11.660;2023-04-20T09:11:05;95274.53;;;4.50;100.00
65800;BME280;52544;48.116;11.660;2023-04-20T09:13:32;95285.84;;;4.51;100.00
65800;BME280;52544;48.116;11.660;2023-04-20T09:16:08;95283.94;;;4.53;100.00
65800;BME280;52544;48.116;11.660;2023-04-20T09:18:34;95290.66;;;4.57;100.00
65800;BME280;52544;48.116;11.660;2023-04-20T09:21:07;95293.09;;;4.60;100.00
65800;BME280;52544;48.116;11.660;2023-04-20T09:23:33;95305.78;;;4.66;100.00
65800;BME280;52544;48.116;11.660;2023-04-20T09:25:58;95292.66;;;4.66;100.00
65800;BME280;52544;48.116;11.660;2023-04-20T09:28:34;95291.53;;;4.70;100.00
65800;BME280;52544;48.116;11.660;2023-04-20T09:31:00;95291.34;;;4.73;100.00
65800;BME280;52544;48.116;11.660;2023-04-20T09:33:28;95279.69;;;4.78;100.00
65800;BME280;52544;48.116;11.660;2023-04-20T09:36:02;95278.22;;;4.73;100.00
65800;BME280;52544;48.116;11.660;2023-04-20T09:38:28;95277.78;;;4.80;100.00
65800;BME280;52544;48.116;11.660;2023-04-20T09:40:57;95288.09;;;4.83;100.00
65800;BME280;52544;48.116;11.660;2023-04-20T09:43:26;95278.53;;;4.82;100.00
65800;BME280;52544;48.116;11.660;2023-04-20T09:45:53;95281.88;;;4.84;100.00
65800;BME280;52544;48.116;11.660;2023-04-20T09:48:20;95274.25;;;4.93;100.00
65800;BME280;52544;48.116;11.660;2023-04-20T09:50:46;95277.41;;;4.98;100.00
65800;BME280;52544;48.116;11.660;2023-04-20T09:53:15;95269.44;;;5.00;100.00
65800;BME280;52544;48.116;11.660;2023-04-20T09:55:48;95255.28;;;5.03;100.00
65800;BME280;52544;48.116;11.660;2023-04-20T09:58:17;95256.94;;;5.04;100.00
65800;BME280;52544;48.116;11.660;2023-04-20T10:00:42;95266.72;;;5.14;100.00
65800;BME280;52544;48.116;11.660;2023-04-20T10:03:08;95267.53;;;5.15;100.00
65800;BME280;52544;48.116;11.660;2023-04-20T10:05:36;95273.19;;;5.21;100.00
65800;BME280;52544;48.116;11.660;2023-04-20T10:08:04;95267.75;;;5.24;100.00
65800;BME280;52544;48.116;11.660;2023-04-20T10:10:29;95261.66;;;5.24;100.00
65800;BME280;52544;48.116;11.660;2023-04-20T10:12:58;95257.44;;;5.21;100.00
65800;BME280;52544;48.116;11.660;2023-04-20T10:15:36;95273.63;;;5.15;100.00
65800;BME280;52544;48.116;11.660;2023-04-20T10:18:22;95261.47;;;5.14;100.00
65800;BME280;52544;48.116;11.660;2023-04-20T10:20:49;95256.09;;;5.16;100.00
65800;BME280;52544;48.116;11.660;2023-04-20T10:23:15;95266.78;;;5.13;100.00
65800;BME280;52544;48.116;11.660;2023-04-20T10:25:53;95263.47;;;5.11;100.00
65800;BME280;52544;48.116;11.660;2023-04-20T10:28:19;95263.53;;;5.09;100.00
65800;BME280;52544;48.116;11.660;2023-04-20T10:30:50;95261.16;;;5.06;100.00
65800;BME280;52544;48.116;11.660;2023-04-20T10:33:16;95257.06;;;5.02;100.00
65800;BME280;52544;48.116;11.660;2023-04-20T10:35:46;95244.59;;;5.06;100.00
65800;BME280;52544;48.116;11.660;2023-04-20T10:38:12;95251.25;;;5.10;100.00
65800;BME280;52544;48.116;11.660;2023-04-20T10:40:38;95255.25;;;5.15;100.00
65800;BME280;52544;48.116;11.660;2023-04-20T10:43:03;95250.75;;;5.17;100.00
65800;BME280;52544;48.116;11.660;2023-04-20T10:45:33;95238.38;;;5.19;100.00
65800;BME280;52544;48.116;11.660;2023-04-20T10:48:08;95240.78;;;5.22;100.00
65800;BME280;52544;48.116;11.660;2023-04-20T10:50:34;95243.41;;;5.22;100.00
65800;BME280;52544;48.116;11.660;2023-04-20T10:53:00;95247.47;;;5.26;100.00
65800;BME280;52544;48.116;11.660;2023-04-20T10:55:25;95243.09;;;5.27;100.00
65800;BME280;52544;48.116;11.660;2023-04-20T10:57:51;95233.19;;;5.31;100.00
65800;BME280;52544;48.116;11.660;2023-04-20T11:00:19;95224.28;;;5.33;100.00
65800;BME280;52544;48.116;11.660;2023-04-20T11:02:53;95221.66;;;5.33;100.00
65800;BME280;52544;48.116;11.660;2023-04-20T11:05:19;95221.66;;;5.33;100.00
65800;BME280;52544;48.116;11.660;2023-04-20T11:07:56;95226.06;;;5.33;100.00
65800;BME280;52544;48.116;11.660;2023-04-20T11:10:35;95219.25;;;5.30;100.00
65800;BME280;52544;48.116;11.660;2023-04-20T11:13:01;95208.97;;;5.27;100.00
65800;BME280;52544;48.116;11.660;2023-04-20T11:15:30;95211.28;;;5.32;100.00
65800;BME280;52544;48.116;11.660;2023-04-20T11:18:05;95204.31;;;5.31;100.00
65800;BME280;52544;48.116;11.660;2023-04-20T11:20:31;95208.41;;;5.35;100.00
65800;BME280;52544;48.116;11.660;2023-04-20T11:22:56;95198.88;;;5.34;100.00
65800;BME280;52544;48.116;11.660;2023-04-20T11:25:25;95197.00;;;5.36;100.00
65800;BME280;52544;48.116;11.660;2023-04-20T11:27:52;95198.78;;;5.35;100.00
65800;BME280;52544;48.116;11.660;2023-04-20T11:30:17;95195.84;;;5.40;100.00
65800;BME280;52544;48.116;11.660;2023-04-20T11:32:52;95189.19;;;5.47;100.00
65800;BME280;52544;48.116;11.660;2023-04-20T11:35:18;95192.63;;;5.47;100.00
65800;BME280;52544;48.116;11.660;2023-04-20T11:37:48;95192.94;;;5.56;100.00
65800;BME280;52544;48.116;11.660;2023-04-20T11:40:16;95193.13;;;5.65;100.00
65800;BME280;52544;48.116;11.660;2023-04-20T11:42:42;95188.66;;;5.79;100.00
65800;BME280;52544;48.116;11.660;2023-04-20T11:45:08;95195.88;;;5.88;100.00
65800;BME280;52544;48.116;11.660;2023-04-20T11:47:35;95199.31;;;5.88;100.00
65800;BME280;52544;48.116;11.660;2023-04-20T11:50:00;95189.66;;;5.89;100.00
65800;BME280;52544;48.116;11.660;2023-04-20T11:52:26;95184.41;;;5.89;100.00
65800;BME280;52544;48.116;11.660;2023-04-20T11:54:51;95173.53;;;5.82;100.00
65800;BME280;52544;48.116;11.660;2023-04-20T11:57:16;95177.06;;;5.81;100.00
65800;BME280;52544;48.116;11.660;2023-04-20T11:59:42;95179.31;;;5.74;100.00
65800;BME280;52544;48.116;11.660;2023-04-20T12:02:08;95175.63;;;5.77;100.00
65800;BME280;52544;48.116;11.660;2023-04-20T12:04:34;95170.56;;;5.87;100.00
65800;BME280;52544;48.116;11.660;2023-04-20T12:06:59;95175.16;;;5.96;100.00
65800;BME280;52544;48.116;11.660;2023-04-20T12:09:26;95174.22;;;5.97;100.00
65800;BME280;52544;48.116;11.660;2023-04-20T12:11:52;95179.25;;;6.00;100.00
65800;BME280;52544;48.116;11.660;2023-04-20T12:14:18;95181.38;;;5.95;100.00
65800;BME280;52544;48.116;11.660;2023-04-20T12:16:44;95173.72;;;5.92;100.00
65800;BME280;52544;48.116;11.660;2023-04-20T12:19:09;95177.06;;;5.94;100.00
65800;BME280;52544;48.116;11.660;2023-04-20T12:21:35;95179.47;;;5.97;100.00
65800;BME280;52544;48.116;11.660;2023-04-20T12:24:00;95183.13;;;5.94;100.00
65800;BME280;52544;48.116;11.660;2023-04-20T12:26:25;95180.06;;;6.00;100.00
65800;BME280;52544;48.116;11.660;2023-04-20T12:28:51;95179.00;;;6.03;100.00
65800;BME280;52544;48.116;11.660;2023-04-20T12:31:17;95175.03;;;5.97;100.00
65800;BME280;52544;48.116;11.660;2023-04-20T12:33:42;95162.88;;;5.96;100.00
65800;BME280;52544;48.116;11.660;2023-04-20T12:36:08;95161.47;;;6.04;100.00
65800;BME280;52544;48.116;11.660;2023-04-20T12:38:35;95157.75;;;6.06;100.00
65800;BME280;52544;48.116;11.660;2023-04-20T12:41:01;95153.25;;;6.08;100.00
65800;BME280;52544;48.116;11.660;2023-04-20T12:43:28;95152.28;;;6.09;100.00
65800;BME280;52544;48.116;11.660;2023-04-20T12:45:55;95147.75;;;6.11;100.00
65800;BME280;52544;48.116;11.660;2023-04-20T12:48:20;95154.19;;;6.07;100.00
65800;BME280;52544;48.116;11.660;2023-04-20T12:50:46;95151.53;;;6.07;100.00